• Join FlightAware (Why Join?)
  • Login
  • US Flag 
02:31PM EDT


 

Airport Tracker/Info


-or-


 

Live Flight TrackerFlight Track Log ✈ AAL1326 ✈ 11-May-2013 ✈ KMCI - KORD

Flight Track Log - Related Links

Times and Time Zones

All times are in EDT time to prevent confusion due to time zone crossing. See the AAL1326 flight status page for this flight to view local times or setup timezone preferences in your user account.

Time Position Orientation Groundspeed Altitude Reporting Facility
EDT Latitude Longitude Course Direction KTS MPH feet Rate Location/Type
04:32PM 39.4147 -94.5526 46° Northeast  Level FlightAware Approximate
04:32PM 39.3850 -94.6080 46° Northeast 265 305 7,400  Level FlightAware
04:32PM 39.4040 -94.5850 43° Northeast 261 300 9,100 3,480 Climbing FlightAware
04:33PM 39.4430 -94.5360 44° Northeast 306 352 10,900 2,520 Climbing FlightAware
04:33PM 39.4860 -94.4840 43° Northeast 341 392 12,500 2,580 Climbing FlightAware
04:34PM 39.5410 -94.4160 44° Northeast 369 425 14,600 3,000 Climbing FlightAware
04:35PM 39.5990 -94.3470 43° Northeast 381 438 17,000 3,120 Climbing FlightAware
04:36PM 39.6540 -94.2840 41° Northeast 392 451 19,100 2,820 Climbing FlightAware
04:36PM 39.7060 -94.2240 42° Northeast 402 463 20,800 2,640 Climbing FlightAware
04:36PM 39.7190 -94.2010 54° Northeast 418 481 21,300 2,280 Climbing FlightAware
04:37PM 39.7610 -94.0810 65° Northeast 445 512 23,100 2,100 Climbing FlightAware
04:38PM 39.7920 -93.9820 68° East 456 525 24,500 1,920 Climbing FlightAware
04:39PM 39.8270 -93.8680 68° East 468 539 25,900 1,800 Climbing FlightAware
04:39PM 39.8590 -93.7630 68° East 477 549 27,100 1,800 Climbing FlightAware
04:40PM 39.8920 -93.6540 68° East 487 560 28,300 1,620 Climbing FlightAware
04:41PM 39.9310 -93.5280 68° East 498 573 29,400 1,680 Climbing FlightAware
04:41PM 39.9650 -93.4170 68° East 497 572 30,700 1,800 Climbing FlightAware
04:42PM 39.9990 -93.3040 69° East 500 575 31,800 1,320 Climbing FlightAware
04:43PM 40.0280 -93.2090 68° East 509 586 32,400 960 Climbing FlightAware
04:43PM 40.0630 -93.0920 69° East 518 596 33,000 420 Climbing FlightAware
04:44PM 40.0980 -92.9750 69° East 516 594 33,000  Level FlightAware
04:45PM 40.1280 -92.8730 69° East 515 593 33,000  Level FlightAware
04:45PM 40.1700 -92.7280 69° East 517 595 33,000  Level FlightAware
04:46PM 40.2050 -92.6110 69° East 521 600 33,000  Level FlightAware
04:47PM 40.2420 -92.4880 68° East 523 602 33,000  Level FlightAware
04:47PM 40.2750 -92.3740 69° East 525 604 33,000  Level FlightAware
04:48PM 40.3140 -92.2430 69° East 525 604 33,000  Level FlightAware
04:49PM 40.3570 -92.0930 69° East 526 605 33,000  Level FlightAware
04:50PM 40.3970 -91.9550 69° East 526 605 33,000  Level FlightAware
04:50PM 40.4340 -91.8250 69° East 527 606 33,000  Level FlightAware
04:51PM 40.4710 -91.6950 69° East 528 608 33,000  Level FlightAware
04:52PM 40.5030 -91.5810 70° East 529 609 33,000  Level FlightAware
04:53PM 40.5360 -91.4650 69° East 530 610 33,000  Level FlightAware
04:53PM 40.5780 -91.3340 67° East 529 609 33,000  Level FlightAware
04:54PM 40.6200 -91.2120 66° East 529 609 33,000  Level FlightAware
04:55PM 40.6680 -91.0700 66° East 529 609 33,000  Level FlightAware
04:55PM 40.7040 -90.9650 66° East 530 610 33,000  Level FlightAware
04:56PM 40.7460 -90.8410 66° East 527 606 33,000  Level FlightAware
04:57PM 40.7900 -90.7090 66° East 529 609 33,000  Level FlightAware
04:57PM 40.8300 -90.5900 66° East 531 611 33,000  Level FlightAware
04:58PM 40.8670 -90.4790 66° East 534 615 33,000  Level FlightAware
04:59PM 40.9150 -90.3350 66° East 534 615 33,000  Level FlightAware
05:00PM 40.9550 -90.2160 66° East 533 613 33,000 -720 Level FlightAware
05:00PM 40.9870 -90.1180 67° East 533 613 32,100 -2,520 Descending FlightAware
05:01PM 41.0390 -89.9580 67° East 519 597 29,500 -2,820 Descending FlightAware
05:02PM 41.0720 -89.8560 67° East 508 585 27,900 -1,920 Descending FlightAware
05:02PM 41.1120 -89.7340 66° East 494 568 27,000 -1,020 Descending FlightAware
05:03PM 41.1460 -89.6280 67° East 492 566 26,600 -1,620 Descending FlightAware
05:04PM 41.1980 -89.4920 63° Northeast 473 544 24,600 -3,000 Descending FlightAware
05:04PM 41.2410 -89.3880 61° Northeast 479 551 22,100 -3,480 Descending FlightAware
05:05PM 41.2840 -89.2810 62° Northeast 472 543 20,000 -3,060 Descending FlightAware
05:06PM 41.3270 -89.1740 62° Northeast 464 534 17,800 -2,940 Descending FlightAware
05:07PM 41.3690 -89.0690 62° Northeast 446 513 15,900 -2,760 Descending FlightAware
05:07PM 41.4120 -88.9600 62° Northeast 430 495 13,900 -2,100 Descending FlightAware
05:08PM 41.4450 -88.8760 62° Northeast 404 465 13,000 -900 Descending FlightAware
05:09PM 41.4800 -88.7890 62° Northeast 396 456 12,700 -1,380 Descending FlightAware
05:09PM 41.5190 -88.6900 62° Northeast 381 438 11,100 -1,200 Descending FlightAware
05:10PM 41.5510 -88.6090 62° Northeast 371 427 11,000 -120 Descending FlightAware
05:11PM 41.5870 -88.5180 62° Northeast 375 432 11,000  Level FlightAware
05:11PM 41.6220 -88.4450 57° Northeast 367 422 11,000  Level FlightAware
05:12PM 41.6660 -88.3690 52° Northeast 369 425 11,000  Level FlightAware
05:13PM 41.7140 -88.2870 52° Northeast 368 423 11,000  Level FlightAware
05:14PM 41.7540 -88.2170 53° Northeast 369 425 11,000  Level FlightAware
05:14PM 41.8020 -88.1350 52° Northeast 374 430 11,000 -240 Level FlightAware
05:15PM 41.8420 -88.0660 52° Northeast 333 383 10,700 -780 Descending FlightAware
05:16PM 41.8770 -87.9980 55° Northeast 308 354 10,000 -1,140 Descending FlightAware
05:16PM 41.8830 -87.9760 70° East 309 356 9,700 -1,500 Descending FlightAware
05:16PM 41.8840 -87.9650 83° East 307 353 9,500 -960 Descending FlightAware
05:17PM 41.8840 -87.8860 90° East 303 349 9,000 -540 Descending FlightAware
05:17PM 41.8850 -87.8510 88° East 302 348 9,000  Level FlightAware
05:17PM 41.8840 -87.7990 91° East 302 348 9,000  Level FlightAware
05:18PM 41.8840 -87.7490 90° East 302 348 9,000  Level FlightAware
05:18PM 41.8840 -87.6850 90° East 300 345 9,000 -120 Level FlightAware
05:19PM 41.8840 -87.6390 90° East 294 338 8,900 -1,200 Descending FlightAware
05:19PM 41.8840 -87.5810 90° East 299 344 7,900 -1,800 Descending FlightAware
05:20PM 41.8830 -87.5260 91° East 306 352 7,100 -1,560 Descending FlightAware
05:20PM 41.8830 -87.5140 90° East 304 350 7,000 -180 Descending FlightAware
05:21PM 41.8840 -87.4490 89° East 298 343 7,000  Level FlightAware
05:21PM 41.8920 -87.3980 78° East 286 329 7,000 -180 Level FlightAware
05:21PM 41.9010 -87.3870 42° Northeast 280 322 6,900 -720 Descending FlightAware
05:21PM 41.9200 -87.3780 19° North 264 304 6,700 -840 Descending FlightAware
05:22PM 41.9570 -87.4170 322° Northwest 241 277 6,100 -600 Descending FlightAware
05:23PM 41.9690 -87.4490 297° West 239 275 6,000 -120 Descending FlightAware
05:23PM 41.9800 -87.4840 293° West 222 255 6,000  Level FlightAware
05:24PM 41.9830 -87.5240 276° West 202 232 6,000 -660 Level FlightAware
05:24PM 41.9840 -87.5520 273° West 203 234 5,400 -1,320 Descending FlightAware
05:24PM 41.9830 -87.5880 268° West 203 234 4,900 -1,020 Descending FlightAware
05:25PM 41.9840 -87.6280 272° West 203 234 4,400 -1,020 Descending FlightAware
05:25PM 41.9840 -87.6640 270° West 202 232 3,900 -1,020 Descending FlightAware
05:26PM 41.9840 -87.6970 270° West 198 228 3,500 -1,020 Descending FlightAware
05:26PM 41.9830 -87.7330 268° West 178 205 3,000 -1,020 Descending FlightAware
05:27PM 41.9840 -87.7660 272° West 172 198 2,500 -960 Descending FlightAware
05:27PM 41.9840 -87.7850 270° West 170 196 2,200 -900 Descending FlightAware
05:28PM 41.9830 -87.8050 266° West 157 181 1,900 -840 Descending FlightAware
05:28PM 41.9840 -87.8280 273° West 139 160 1,600 -780 Descending FlightAware
05:29PM 41.9840 -87.8650 270° West 129 148 1,000 -780 Descending FlightAware
05:29PM 41.9840 -87.8850 270° West 137 158 700 -720 Descending FlightAware